sensor_id;sensor_type;location;lat;lon;timestamp;temperature;humidity
67157;SHT31;54086;50.126;8.710;2023-07-09T00:00:50;24.83;58.16
67157;SHT31;54086;50.126;8.710;2023-07-09T00:03:16;24.86;58.25
67157;SHT31;54086;50.126;8.710;2023-07-09T00:05:43;24.82;58.07
67157;SHT31;54086;50.126;8.710;2023-07-09T00:08:41;24.83;58.31
67157;SHT31;54086;50.126;8.710;2023-07-09T00:11:07;24.76;58.21
67157;SHT31;54086;50.126;8.710;2023-07-09T00:13:32;24.74;58.31
67157;SHT31;54086;50.126;8.710;2023-07-09T00:16:00;24.70;58.72
67157;SHT31;54086;50.126;8.710;2023-07-09T00:18:26;24.63;58.95
67157;SHT31;54086;50.126;8.710;2023-07-09T00:20:52;24.59;58.66
67157;SHT31;54086;50.126;8.710;2023-07-09T00:23:17;24.51;58.80
67157;SHT31;54086;50.126;8.710;2023-07-09T00:25:44;24.45;58.96
67157;SHT31;54086;50.126;8.710;2023-07-09T00:28:14;24.45;58.96
67157;SHT31;54086;50.126;8.710;2023-07-09T00:30:40;24.40;58.94
67157;SHT31;54086;50.126;8.710;2023-07-09T00:33:10;24.35;58.95
67157;SHT31;54086;50.126;8.710;2023-07-09T00:35:36;24.29;59.11
67157;SHT31;54086;50.126;8.710;2023-07-09T00:38:05;24.35;58.89
67157;SHT31;54086;50.126;8.710;2023-07-09T00:40:30;24.36;59.12
67157;SHT31;54086;50.126;8.710;2023-07-09T00:42:59;24.33;59.20
67157;SHT31;54086;50.126;8.710;2023-07-09T00:45:27;24.35;58.93
67157;SHT31;54086;50.126;8.710;2023-07-09T00:48:02;24.33;59.10
67157;SHT31;54086;50.126;8.710;2023-07-09T00:50:44;24.35;59.39
67157;SHT31;54086;50.126;8.710;2023-07-09T00:53:20;24.42;59.10
67157;SHT31;54086;50.126;8.710;2023-07-09T00:55:59;24.32;59.30
67157;SHT31;54086;50.126;8.710;2023-07-09T00:58:27;24.24;59.63
67157;SHT31;54086;50.126;8.710;2023-07-09T01:01:03;24.29;59.52
67157;SHT31;54086;50.126;8.710;2023-07-09T01:03:35;24.30;59.82
67157;SHT31;54086;50.126;8.710;2023-07-09T01:06:01;24.36;59.75
67157;SHT31;54086;50.126;8.710;2023-07-09T01:08:30;24.29;60.08
67157;SHT31;54086;50.126;8.710;2023-07-09T01:10:57;24.21;60.18
67157;SHT31;54086;50.126;8.710;2023-07-09T01:13:24;24.02;60.76
67157;SHT31;54086;50.126;8.710;2023-07-09T01:15:51;23.89;61.02
67157;SHT31;54086;50.126;8.710;2023-07-09T01:18:17;23.84;61.21
67157;SHT31;54086;50.126;8.710;2023-07-09T01:20:43;23.81;61.39
67157;SHT31;54086;50.126;8.710;2023-07-09T01:23:09;23.78;61.48
67157;SHT31;54086;50.126;8.710;2023-07-09T01:25:43;23.74;61.32
67157;SHT31;54086;50.126;8.710;2023-07-09T01:28:09;23.68;61.51
67157;SHT31;54086;50.126;8.710;2023-07-09T01:30:41;23.60;61.96
67157;SHT31;54086;50.126;8.710;2023-07-09T01:33:07;23.50;62.38
67157;SHT31;54086;50.126;8.710;2023-07-09T01:35:36;23.42;62.55
67157;SHT31;54086;50.126;8.710;2023-07-09T01:38:03;23.24;63.09
67157;SHT31;54086;50.126;8.710;2023-07-09T01:40:32;23.28;63.03
67157;SHT31;54086;50.126;8.710;2023-07-09T01:42:58;23.23;63.15
67157;SHT31;54086;50.126;8.710;2023-07-09T01:45:24;23.22;63.14
67157;SHT31;54086;50.126;8.710;2023-07-09T01:47:49;23.16;63.54
67157;SHT31;54086;50.126;8.710;2023-07-09T01:50:15;23.03;63.31
67157;SHT31;54086;50.126;8.710;2023-07-09T01:52:42;23.06;62.90
67157;SHT31;54086;50.126;8.710;2023-07-09T01:55:10;22.98;63.40
67157;SHT31;54086;50.126;8.710;2023-07-09T01:57:36;23.00;63.22
67157;SHT31;54086;50.126;8.710;2023-07-09T02:00:07;23.03;63.11
67157;SHT31;54086;50.126;8.710;2023-07-09T02:02:35;23.00;63.16
67157;SHT31;54086;50.126;8.710;2023-07-09T02:05:01;23.00;63.14
67157;SHT31;54086;50.126;8.710;2023-07-09T02:07:27;22.92;63.47
67157;SHT31;54086;50.126;8.710;2023-07-09T02:09:53;22.98;63.23
67157;SHT31;54086;50.126;8.710;2023-07-09T02:12:18;22.91;63.56
67157;SHT31;54086;50.126;8.710;2023-07-09T02:14:45;22.79;63.73
67157;SHT31;54086;50.126;8.710;2023-07-09T02:17:12;22.71;64.03
67157;SHT31;54086;50.126;8.710;2023-07-09T02:19:37;22.57;64.43
67157;SHT31;54086;50.126;8.710;2023-07-09T02:22:04;22.55;64.43
67157;SHT31;54086;50.126;8.710;2023-07-09T02:24:30;22.47;64.81
67157;SHT31;54086;50.126;8.710;2023-07-09T02:26:57;22.52;64.57
67157;SHT31;54086;50.126;8.710;2023-07-09T02:29:23;22.55;64.80
67157;SHT31;54086;50.126;8.710;2023-07-09T02:31:50;22.57;64.79
67157;SHT31;54086;50.126;8.710;2023-07-09T02:34:17;22.48;65.11
67157;SHT31;54086;50.126;8.710;2023-07-09T02:36:43;22.41;65.60
67157;SHT31;54086;50.126;8.710;2023-07-09T02:39:13;22.40;65.68
67157;SHT31;54086;50.126;8.710;2023-07-09T02:41:41;22.31;66.04
67157;SHT31;54086;50.126;8.710;2023-07-09T02:44:07;22.25;66.44
67157;SHT31;54086;50.126;8.710;2023-07-09T02:46:34;22.28;66.30
67157;SHT31;54086;50.126;8.710;2023-07-09T02:49:03;22.14;66.85
67157;SHT31;54086;50.126;8.710;2023-07-09T02:51:32;22.01;67.39
67157;SHT31;54086;50.126;8.710;2023-07-09T02:53:59;22.10;67.17
67157;SHT31;54086;50.126;8.710;2023-07-09T02:56:25;21.98;67.52
67157;SHT31;54086;50.126;8.710;2023-07-09T02:58:51;22.07;67.46
67157;SHT31;54086;50.126;8.710;2023-07-09T03:01:17;22.00;67.78
67157;SHT31;54086;50.126;8.710;2023-07-09T03:03:43;21.86;67.92
67157;SHT31;54086;50.126;8.710;2023-07-09T03:06:09;21.98;67.75
67157;SHT31;54086;50.126;8.710;2023-07-09T03:08:34;21.90;68.04
67157;SHT31;54086;50.126;8.710;2023-07-09T03:11:09;21.87;68.14
67157;SHT31;54086;50.126;8.710;2023-07-09T03:13:34;21.76;68.56
67157;SHT31;54086;50.126;8.710;2023-07-09T03:16:00;21.73;68.74
67157;SHT31;54086;50.126;8.710;2023-07-09T03:18:25;21.73;68.91
67157;SHT31;54086;50.126;8.710;2023-07-09T03:20:50;21.73;68.98
67157;SHT31;54086;50.126;8.710;2023-07-09T03:23:17;21.76;69.06
67157;SHT31;54086;50.126;8.710;2023-07-09T03:25:45;21.65;69.42
67157;SHT31;54086;50.126;8.710;2023-07-09T03:28:11;21.56;69.70
67157;SHT31;54086;50.126;8.710;2023-07-09T03:30:41;21.52;69.81
67157;SHT31;54086;50.126;8.710;2023-07-09T03:33:08;21.56;69.69
67157;SHT31;54086;50.126;8.710;2023-07-09T03:35:33;21.53;69.99
67157;SHT31;54086;50.126;8.710;2023-07-09T03:38:06;21.55;69.91
67157;SHT31;54086;50.126;8.710;2023-07-09T03:40:32;21.45;70.15
67157;SHT31;54086;50.126;8.710;2023-07-09T03:42:57;21.41;70.17
67157;SHT31;54086;50.126;8.710;2023-07-09T03:45:23;21.34;70.23
67157;SHT31;54086;50.126;8.710;2023-07-09T03:47:52;21.28;70.39
67157;SHT31;54086;50.126;8.710;2023-07-09T03:50:18;21.31;70.46
67157;SHT31;54086;50.126;8.710;2023-07-09T03:52:44;21.49;70.11
67157;SHT31;54086;50.126;8.710;2023-07-09T03:55:10;21.37;70.32
67157;SHT31;54086;50.126;8.710;2023-07-09T03:57:35;21.35;70.40
67157;SHT31;54086;50.126;8.710;2023-07-09T04:00:03;21.48;70.21
67157;SHT31;54086;50.126;8.710;2023-07-09T04:02:29;21.41;70.34
67157;SHT31;54086;50.126;8.710;2023-07-09T04:04:54;21.45;70.32
67157;SHT31;54086;50.126;8.710;2023-07-09T04:07:22;21.46;70.18
67157;SHT31;54086;50.126;8.710;2023-07-09T04:09:48;21.45;70.10
67157;SHT31;54086;50.126;8.710;2023-07-09T04:12:14;21.42;70.26
67157;SHT31;54086;50.126;8.710;2023-07-09T04:14:39;21.38;70.64
67157;SHT31;54086;50.126;8.710;2023-07-09T04:17:05;21.42;70.59
67157;SHT31;54086;50.126;8.710;2023-07-09T04:19:31;21.53;70.36
67157;SHT31;54086;50.126;8.710;2023-07-09T04:21:57;21.53;70.76
67157;SHT31;54086;50.126;8.710;2023-07-09T04:24:22;21.50;71.01
67157;SHT31;54086;50.126;8.710;2023-07-09T04:26:48;21.46;71.21
67157;SHT31;54086;50.126;8.710;2023-07-09T04:29:14;21.59;71.26
67157;SHT31;54086;50.126;8.710;2023-07-09T04:31:40;21.58;71.20
67157;SHT31;54086;50.126;8.710;2023-07-09T04:34:05;21.65;71.20
67157;SHT31;54086;50.126;8.710;2023-07-09T04:36:31;21.59;71.67
67157;SHT31;54086;50.126;8.710;2023-07-09T04:38:57;21.59;71.91
67157;SHT31;54086;50.126;8.710;2023-07-09T04:41:23;21.59;71.78
67157;SHT31;54086;50.126;8.710;2023-07-09T04:43:49;21.59;71.78
67157;SHT31;54086;50.126;8.710;2023-07-09T04:46:15;21.59;72.05
67157;SHT31;54086;50.126;8.710;2023-07-09T04:48:41;21.66;71.85
67157;SHT31;54086;50.126;8.710;2023-07-09T04:51:06;21.62;72.02
67157;SHT31;54086;50.126;8.710;2023-07-09T04:53:32;21.60;72.10
67157;SHT31;54086;50.126;8.710;2023-07-09T04:55:57;21.75;71.73
67157;SHT31;54086;50.126;8.710;2023-07-09T04:58:23;21.80;71.79
67157;SHT31;54086;50.126;8.710;2023-07-09T05:00:48;21.73;71.97
67157;SHT31;54086;50.126;8.710;2023-07-09T05:03:15;21.66;72.30
67157;SHT31;54086;50.126;8.710;2023-07-09T05:05:45;21.69;72.60
67157;SHT31;54086;50.126;8.710;2023-07-09T05:08:12;21.73;72.38
67157;SHT31;54086;50.126;8.710;2023-07-09T05:10:45;21.72;72.45
67157;SHT31;54086;50.126;8.710;2023-07-09T05:13:11;21.82;72.33
67157;SHT31;54086;50.126;8.710;2023-07-09T05:15:41;21.86;72.30
67157;SHT31;54086;50.126;8.710;2023-07-09T05:18:06;21.66;72.68
67157;SHT31;54086;50.126;8.710;2023-07-09T05:20:33;21.94;72.06
67157;SHT31;54086;50.126;8.710;2023-07-09T05:22:58;22.04;71.64
67157;SHT31;54086;50.126;8.710;2023-07-09T05:25:24;22.11;71.40
67157;SHT31;54086;50.126;8.710;2023-07-09T05:27:49;22.17;71.65
67157;SHT31;54086;50.126;8.710;2023-07-09T05:30:15;22.11;71.65
67157;SHT31;54086;50.126;8.710;2023-07-09T05:32:40;22.10;71.66
67157;SHT31;54086;50.126;8.710;2023-07-09T05:35:06;22.16;71.54
67157;SHT31;54086;50.126;8.710;2023-07-09T05:37:31;22.25;71.04
67157;SHT31;54086;50.126;8.710;2023-07-09T05:39:57;22.36;70.64
67157;SHT31;54086;50.126;8.710;2023-07-09T05:42:22;22.58;70.20
67157;SHT31;54086;50.126;8.710;2023-07-09T05:44:48;22.47;70.45
67157;SHT31;54086;50.126;8.710;2023-07-09T05:47:13;22.34;71.03
67157;SHT31;54086;50.126;8.710;2023-07-09T05:49:39;22.51;70.90
67157;SHT31;54086;50.126;8.710;2023-07-09T05:52:05;22.41;71.09
67157;SHT31;54086;50.126;8.710;2023-07-09T05:54:31;22.49;70.82
67157;SHT31;54086;50.126;8.710;2023-07-09T05:56:56;22.58;70.53
67157;SHT31;54086;50.126;8.710;2023-07-09T05:59:22;22.66;70.49
67157;SHT31;54086;50.126;8.710;2023-07-09T06:01:47;22.62;70.63
67157;SHT31;54086;50.126;8.710;2023-07-09T06:04:12;22.79;70.50
67157;SHT31;54086;50.126;8.710;2023-07-09T06:06:39;22.82;70.29
67157;SHT31;54086;50.126;8.710;2023-07-09T06:09:06;23.02;69.69
67157;SHT31;54086;50.126;8.710;2023-07-09T06:11:33;23.02;69.97
67157;SHT31;54086;50.126;8.710;2023-07-09T06:13:59;23.02;69.94
67157;SHT31;54086;50.126;8.710;2023-07-09T06:16:24;23.09;69.91
67157;SHT31;54086;50.126;8.710;2023-07-09T06:18:49;22.94;70.25
67157;SHT31;54086;50.126;8.710;2023-07-09T06:21:16;23.09;70.25
67157;SHT31;54086;50.126;8.710;2023-07-09T06:23:42;23.26;69.48
67157;SHT31;54086;50.126;8.710;2023-07-09T06:26:07;23.40;69.20
67157;SHT31;54086;50.126;8.710;2023-07-09T06:28:33;23.46;69.22
67157;SHT31;54086;50.126;8.710;2023-07-09T06:30:58;23.37;69.50
67157;SHT31;54086;50.126;8.710;2023-07-09T06:33:25;23.33;69.49
67157;SHT31;54086;50.126;8.710;2023-07-09T06:35:58;23.43;69.65
67157;SHT31;54086;50.126;8.710;2023-07-09T06:38:24;23.64;69.21
67157;SHT31;54086;50.126;8.710;2023-07-09T06:40:50;23.70;68.37
67157;SHT31;54086;50.126;8.710;2023-07-09T06:43:16;23.74;68.69
67157;SHT31;54086;50.126;8.710;2023-07-09T06:45:55;23.95;68.43
67157;SHT31;54086;50.126;8.710;2023-07-09T06:48:22;24.05;68.06
67157;SHT31;54086;50.126;8.710;2023-07-09T06:50:48;24.15;67.82
67157;SHT31;54086;50.126;8.710;2023-07-09T06:53:15;24.21;67.65
67157;SHT31;54086;50.126;8.710;2023-07-09T06:55:41;24.43;67.34
67157;SHT31;54086;50.126;8.710;2023-07-09T06:58:07;24.55;66.83
67157;SHT31;54086;50.126;8.710;2023-07-09T07:00:34;24.70;66.68
67157;SHT31;54086;50.126;8.710;2023-07-09T07:03:00;24.77;66.09
67157;SHT31;54086;50.126;8.710;2023-07-09T07:05:25;24.87;65.62
67157;SHT31;54086;50.126;8.710;2023-07-09T07:07:51;24.98;65.27
67157;SHT31;54086;50.126;8.710;2023-07-09T07:10:18;25.14;64.89
67157;SHT31;54086;50.126;8.710;2023-07-09T07:12:46;25.27;64.61
67157;SHT31;54086;50.126;8.710;2023-07-09T07:15:14;25.31;65.15
67157;SHT31;54086;50.126;8.710;2023-07-09T07:17:40;25.34;64.65
67157;SHT31;54086;50.126;8.710;2023-07-09T07:20:06;25.30;64.56
67157;SHT31;54086;50.126;8.710;2023-07-09T07:22:32;25.52;63.91
67157;SHT31;54086;50.126;8.710;2023-07-09T07:24:57;25.49;63.31
67157;SHT31;54086;50.126;8.710;2023-07-09T07:27:23;25.57;62.88
67157;SHT31;54086;50.126;8.710;2023-07-09T07:29:48;25.83;62.61
67157;SHT31;54086;50.126;8.710;2023-07-09T07:32:14;25.82;62.39
67157;SHT31;54086;50.126;8.710;2023-07-09T07:34:39;25.86;62.08
67157;SHT31;54086;50.126;8.710;2023-07-09T07:37:05;25.88;62.30
67157;SHT31;54086;50.126;8.710;2023-07-09T07:39:30;25.79;62.08
67157;SHT31;54086;50.126;8.710;2023-07-09T07:41:56;25.94;61.55
67157;SHT31;54086;50.126;8.710;2023-07-09T07:44:22;26.00;60.79
67157;SHT31;54086;50.126;8.710;2023-07-09T07:46:48;26.24;60.74
67157;SHT31;54086;50.126;8.710;2023-07-09T07:49:13;26.19;59.66
67157;SHT31;54086;50.126;8.710;2023-07-09T07:51:39;26.30;58.43
67157;SHT31;54086;50.126;8.710;2023-07-09T07:54:05;26.45;58.41
67157;SHT31;54086;50.126;8.710;2023-07-09T07:56:30;26.65;58.26
67157;SHT31;54086;50.126;8.710;2023-07-09T07:58:56;26.67;58.92
67157;SHT31;54086;50.126;8.710;2023-07-09T08:01:21;26.85;58.67
67157;SHT31;54086;50.126;8.710;2023-07-09T08:03:47;26.92;58.39
67157;SHT31;54086;50.126;8.710;2023-07-09T08:06:12;27.16;58.23
67157;SHT31;54086;50.126;8.710;2023-07-09T08:08:38;27.26;57.78
67157;SHT31;54086;50.126;8.710;2023-07-09T08:11:05;27.30;57.84
67157;SHT31;54086;50.126;8.710;2023-07-09T08:13:33;27.39;57.80
67157;SHT31;54086;50.126;8.710;2023-07-09T08:15:59;27.47;57.60
67157;SHT31;54086;50.126;8.710;2023-07-09T08:18:25;27.54;57.43
67157;SHT31;54086;50.126;8.710;2023-07-09T08:20:50;27.57;57.33
67157;SHT31;54086;50.126;8.710;2023-07-09T08:23:15;27.74;57.36
67157;SHT31;54086;50.126;8.710;2023-07-09T08:25:41;27.67;57.12
67157;SHT31;54086;50.126;8.710;2023-07-09T08:28:06;27.76;56.96
67157;SHT31;54086;50.126;8.710;2023-07-09T08:30:32;27.80;57.47
67157;SHT31;54086;50.126;8.710;2023-07-09T08:35:35;27.96;56.99
67157;SHT31;54086;50.126;8.710;2023-07-09T08:38:00;28.21;56.64
67157;SHT31;54086;50.126;8.710;2023-07-09T08:40:26;28.47;56.04
67157;SHT31;54086;50.126;8.710;2023-07-09T08:42:58;28.89;55.35
67157;SHT31;54086;50.126;8.710;2023-07-09T08:45:56;29.35;54.44
67157;SHT31;54086;50.126;8.710;2023-07-09T08:48:36;29.61;53.68
67157;SHT31;54086;50.126;8.710;2023-07-09T08:51:13;30.16;52.52
67157;SHT31;54086;50.126;8.710;2023-07-09T08:53:45;30.35;51.90
67157;SHT31;54086;50.126;8.710;2023-07-09T08:56:13;30.80;51.01
67157;SHT31;54086;50.126;8.710;2023-07-09T08:58:40;31.15;50.11
67157;SHT31;54086;50.126;8.710;2023-07-09T09:01:14;31.49;49.71
67157;SHT31;54086;50.126;8.710;2023-07-09T09:03:46;31.56;49.30
67157;SHT31;54086;50.126;8.710;2023-07-09T09:06:26;31.38;49.67
67157;SHT31;54086;50.126;8.710;2023-07-09T09:09:12;31.14;50.10
67157;SHT31;54086;50.126;8.710;2023-07-09T09:14:27;31.58;49.26
67157;SHT31;54086;50.126;8.710;2023-07-09T09:16:53;32.23;47.92
67157;SHT31;54086;50.126;8.710;2023-07-09T09:19:32;32.60;47.68
67157;SHT31;54086;50.126;8.710;2023-07-09T09:22:08;32.85;47.44
67157;SHT31;54086;50.126;8.710;2023-07-09T09:27:02;33.18;46.61
67157;SHT31;54086;50.126;8.710;2023-07-09T09:29:28;33.63;45.39
67157;SHT31;54086;50.126;8.710;2023-07-09T09:31:56;33.63;45.50
67157;SHT31;54086;50.126;8.710;2023-07-09T09:34:26;33.29;46.16
67157;SHT31;54086;50.126;8.710;2023-07-09T09:36:52;33.01;46.55
67157;SHT31;54086;50.126;8.710;2023-07-09T09:39:19;32.74;47.05
67157;SHT31;54086;50.126;8.710;2023-07-09T09:41:46;33.08;46.51
67157;SHT31;54086;50.126;8.710;2023-07-09T09:44:20;33.27;46.18
67157;SHT31;54086;50.126;8.710;2023-07-09T09:46:48;33.80;45.45
67157;SHT31;54086;50.126;8.710;2023-07-09T09:49:13;34.41;44.32
67157;SHT31;54086;50.126;8.710;2023-07-09T09:51:40;34.15;44.58
67157;SHT31;54086;50.126;8.710;2023-07-09T09:54:24;34.41;44.33
67157;SHT31;54086;50.126;8.710;2023-07-09T09:56:50;34.17;44.53
67157;SHT31;54086;50.126;8.710;2023-07-09T09:59:25;33.45;45.50
67157;SHT31;54086;50.126;8.710;2023-07-09T10:02:00;33.70;45.12
67157;SHT31;54086;50.126;8.710;2023-07-09T10:04:27;33.78;45.16
67157;SHT31;54086;50.126;8.710;2023-07-09T10:07:07;33.96;44.65
67157;SHT31;54086;50.126;8.710;2023-07-09T10:09:56;33.61;45.53
67157;SHT31;54086;50.126;8.710;2023-07-09T10:20:35;33.40;45.65
67157;SHT31;54086;50.126;8.710;2023-07-09T10:24:04;33.88;45.48
67157;SHT31;54086;50.126;8.710;2023-07-09T10:26:11;34.42;44.38
67157;SHT31;54086;50.126;8.710;2023-07-09T10:37:03;35.07;43.47
67157;SHT31;54086;50.126;8.710;2023-07-09T10:39:40;35.61;42.53
67157;SHT31;54086;50.126;8.710;2023-07-09T10:42:12;35.86;42.33
67157;SHT31;54086;50.126;8.710;2023-07-09T10:44:42;35.88;42.07
67157;SHT31;54086;50.126;8.710;2023-07-09T10:47:29;35.57;42.37
67157;SHT31;54086;50.126;8.710;2023-07-09T10:49:56;36.09;41.71
67157;SHT31;54086;50.126;8.710;2023-07-09T10:52:28;36.26;41.48
67157;SHT31;54086;50.126;8.710;2023-07-09T11:00:36;36.06;41.63
67157;SHT31;54086;50.126;8.710;2023-07-09T11:03:05;35.67;41.92
67157;SHT31;54086;50.126;8.710;2023-07-09T11:05:35;36.05;41.36
67157;SHT31;54086;50.126;8.710;2023-07-09T11:08:14;35.65;41.78
67157;SHT31;54086;50.126;8.710;2023-07-09T11:10:52;35.33;42.13
67157;SHT31;54086;50.126;8.710;2023-07-09T11:13:31;35.80;41.76
67157;SHT31;54086;50.126;8.710;2023-07-09T11:16:00;36.28;41.05
67157;SHT31;54086;50.126;8.710;2023-07-09T11:18:34;36.16;40.58
67157;SHT31;54086;50.126;8.710;2023-07-09T11:21:05;36.46;40.30
67157;SHT31;54086;50.126;8.710;2023-07-09T11:23:47;36.60;39.94
67157;SHT31;54086;50.126;8.710;2023-07-09T11:28:53;36.16;40.13
67157;SHT31;54086;50.126;8.710;2023-07-09T11:31:25;36.46;39.59
67157;SHT31;54086;50.126;8.710;2023-07-09T11:34:07;36.26;38.98
67157;SHT31;54086;50.126;8.710;2023-07-09T11:36:35;36.62;38.77
67157;SHT31;54086;50.126;8.710;2023-07-09T11:39:22;36.04;39.19
67157;SHT31;54086;50.126;8.710;2023-07-09T11:41:48;36.01;39.08
67157;SHT31;54086;50.126;8.710;2023-07-09T11:44:24;36.33;38.91
67157;SHT31;54086;50.126;8.710;2023-07-09T11:49:27;36.18;39.32
67157;SHT31;54086;50.126;8.710;2023-07-09T11:52:02;36.11;39.36
67157;SHT31;54086;50.126;8.710;2023-07-09T11:54:27;36.09;39.17
67157;SHT31;54086;50.126;8.710;2023-07-09T11:56:58;36.21;38.90
67157;SHT31;54086;50.126;8.710;2023-07-09T11:59:24;35.55;38.66
67157;SHT31;54086;50.126;8.710;2023-07-09T12:01:51;35.71;38.99
67157;SHT31;54086;50.126;8.710;2023-07-09T12:04:21;36.63;37.52
67157;SHT31;54086;50.126;8.710;2023-07-09T12:06:52;37.66;36.46
67157;SHT31;54086;50.126;8.710;2023-07-09T12:09:20;37.82;36.07
67157;SHT31;54086;50.126;8.710;2023-07-09T12:11:48;38.36;34.98
67157;SHT31;54086;50.126;8.710;2023-07-09T12:14:18;38.94;34.04
67157;SHT31;54086;50.126;8.710;2023-07-09T12:16:49;38.92;34.61
67157;SHT31;54086;50.126;8.710;2023-07-09T12:19:18;37.37;36.04
67157;SHT31;54086;50.126;8.710;2023-07-09T12:21:46;36.84;36.55
67157;SHT31;54086;50.126;8.710;2023-07-09T12:26:51;38.10;35.73
67157;SHT31;54086;50.126;8.710;2023-07-09T12:29:17;37.68;36.36
67157;SHT31;54086;50.126;8.710;2023-07-09T12:31:43;37.66;36.76
67157;SHT31;54086;50.126;8.710;2023-07-09T12:34:13;37.78;36.08
67157;SHT31;54086;50.126;8.710;2023-07-09T12:36:44;38.03;35.27
67157;SHT31;54086;50.126;8.710;2023-07-09T12:39:12;38.06;35.40
67157;SHT31;54086;50.126;8.710;2023-07-09T12:41:40;38.29;35.26
67157;SHT31;54086;50.126;8.710;2023-07-09T12:44:14;38.68;35.45
67157;SHT31;54086;50.126;8.710;2023-07-09T12:46:40;39.14;34.73
67157;SHT31;54086;50.126;8.710;2023-07-09T12:49:06;38.97;34.49
67157;SHT31;54086;50.126;8.710;2023-07-09T12:51:31;38.81;34.76
67157;SHT31;54086;50.126;8.710;2023-07-09T12:54:11;38.41;34.54
67157;SHT31;54086;50.126;8.710;2023-07-09T12:56:38;38.12;34.57
67157;SHT31;54086;50.126;8.710;2023-07-09T12:59:26;38.02;34.90
67157;SHT31;54086;50.126;8.710;2023-07-09T13:02:02;38.88;33.67
67157;SHT31;54086;50.126;8.710;2023-07-09T13:04:37;38.68;34.19
67157;SHT31;54086;50.126;8.710;2023-07-09T13:07:04;39.16;33.40
67157;SHT31;54086;50.126;8.710;2023-07-09T13:09:29;38.94;33.64
67157;SHT31;54086;50.126;8.710;2023-07-09T13:11:55;39.90;32.97
67157;SHT31;54086;50.126;8.710;2023-07-09T13:14:29;39.29;32.99
67157;SHT31;54086;50.126;8.710;2023-07-09T13:17:09;39.65;32.88
67157;SHT31;54086;50.126;8.710;2023-07-09T13:19:35;39.43;32.64
67157;SHT31;54086;50.126;8.710;2023-07-09T13:22:01;39.41;32.93
67157;SHT31;54086;50.126;8.710;2023-07-09T13:24:30;39.73;32.82
67157;SHT31;54086;50.126;8.710;2023-07-09T13:26:56;38.82;33.65
67157;SHT31;54086;50.126;8.710;2023-07-09T13:29:25;39.80;32.67
67157;SHT31;54086;50.126;8.710;2023-07-09T13:31:51;39.94;32.60
67157;SHT31;54086;50.126;8.710;2023-07-09T13:34:26;40.34;32.36
67157;SHT31;54086;50.126;8.710;2023-07-09T13:36:53;38.94;33.59
67157;SHT31;54086;50.126;8.710;2023-07-09T13:39:20;39.07;34.04
67157;SHT31;54086;50.126;8.710;2023-07-09T13:41:47;38.68;33.83
67157;SHT31;54086;50.126;8.710;2023-07-09T13:44:16;39.14;33.54
67157;SHT31;54086;50.126;8.710;2023-07-09T13:46:42;40.33;32.58
67157;SHT31;54086;50.126;8.710;2023-07-09T13:49:10;39.97;32.96
67157;SHT31;54086;50.126;8.710;2023-07-09T13:51:35;39.90;32.99
67157;SHT31;54086;50.126;8.710;2023-07-09T13:54:01;39.76;33.59
67157;SHT31;54086;50.126;8.710;2023-07-09T13:56:28;39.05;34.62
67157;SHT31;54086;50.126;8.710;2023-07-09T13:58:54;38.98;34.93
67157;SHT31;54086;50.126;8.710;2023-07-09T14:01:22;38.70;35.36
67157;SHT31;54086;50.126;8.710;2023-07-09T14:03:48;38.94;35.24
67157;SHT31;54086;50.126;8.710;2023-07-09T14:06:15;39.69;34.36
67157;SHT31;54086;50.126;8.710;2023-07-09T14:08:41;39.43;34.05
67157;SHT31;54086;50.126;8.710;2023-07-09T14:11:11;39.92;33.99
67157;SHT31;54086;50.126;8.710;2023-07-09T14:13:37;40.49;33.07
67157;SHT31;54086;50.126;8.710;2023-07-09T14:16:03;40.18;32.62
67157;SHT31;54086;50.126;8.710;2023-07-09T14:18:29;39.82;32.27
67157;SHT31;54086;50.126;8.710;2023-07-09T14:20:54;40.28;31.97
67157;SHT31;54086;50.126;8.710;2023-07-09T14:23:21;39.53;31.89
67157;SHT31;54086;50.126;8.710;2023-07-09T14:25:47;39.73;31.71
67157;SHT31;54086;50.126;8.710;2023-07-09T14:28:18;39.78;32.25
67157;SHT31;54086;50.126;8.710;2023-07-09T14:30:45;39.29;33.67
67157;SHT31;54086;50.126;8.710;2023-07-09T14:33:17;39.18;33.76
67157;SHT31;54086;50.126;8.710;2023-07-09T14:35:43;38.33;34.23
67157;SHT31;54086;50.126;8.710;2023-07-09T14:38:22;38.44;34.32
67157;SHT31;54086;50.126;8.710;2023-07-09T14:40:50;38.19;34.78
67157;SHT31;54086;50.126;8.710;2023-07-09T14:43:16;37.13;35.44
67157;SHT31;54086;50.126;8.710;2023-07-09T14:45:42;37.17;35.39
67157;SHT31;54086;50.126;8.710;2023-07-09T14:48:12;37.39;35.54
67157;SHT31;54086;50.126;8.710;2023-07-09T14:50:39;37.65;35.47
67157;SHT31;54086;50.126;8.710;2023-07-09T14:53:12;38.40;34.95
67157;SHT31;54086;50.126;8.710;2023-07-09T14:55:38;39.02;34.04
67157;SHT31;54086;50.126;8.710;2023-07-09T14:58:11;39.11;34.03
67157;SHT31;54086;50.126;8.710;2023-07-09T15:00:39;38.20;35.05
67157;SHT31;54086;50.126;8.710;2023-07-09T15:03:08;37.57;35.81
67157;SHT31;54086;50.126;8.710;2023-07-09T15:05:34;37.41;36.32
67157;SHT31;54086;50.126;8.710;2023-07-09T15:08:00;36.73;37.04
67157;SHT31;54086;50.126;8.710;2023-07-09T15:10:27;36.50;37.46
67157;SHT31;54086;50.126;8.710;2023-07-09T15:12:53;36.37;37.41
67157;SHT31;54086;50.126;8.710;2023-07-09T15:15:27;36.42;37.73
67157;SHT31;54086;50.126;8.710;2023-07-09T15:17:55;36.22;37.58
67157;SHT31;54086;50.126;8.710;2023-07-09T15:20:26;36.35;37.78
67157;SHT31;54086;50.126;8.710;2023-07-09T15:22:57;36.31;36.97
67157;SHT31;54086;50.126;8.710;2023-07-09T15:25:28;36.06;36.84
67157;SHT31;54086;50.126;8.710;2023-07-09T15:27:54;36.35;37.17
67157;SHT31;54086;50.126;8.710;2023-07-09T15:30:33;36.42;36.92
67157;SHT31;54086;50.126;8.710;2023-07-09T15:33:01;36.50;36.96
67157;SHT31;54086;50.126;8.710;2023-07-09T15:35:32;36.43;37.17
67157;SHT31;54086;50.126;8.710;2023-07-09T15:37:58;36.26;37.06
67157;SHT31;54086;50.126;8.710;2023-07-09T15:40:25;36.21;37.29
67157;SHT31;54086;50.126;8.710;2023-07-09T15:42:56;36.09;37.23
67157;SHT31;54086;50.126;8.710;2023-07-09T15:45:21;36.26;37.42
67157;SHT31;54086;50.126;8.710;2023-07-09T15:47:49;36.12;36.88
67157;SHT31;54086;50.126;8.710;2023-07-09T15:50:17;36.22;36.78
67157;SHT31;54086;50.126;8.710;2023-07-09T15:52:47;36.08;36.84
67157;SHT31;54086;50.126;8.710;2023-07-09T15:55:23;35.96;36.83
67157;SHT31;54086;50.126;8.710;2023-07-09T15:57:51;35.82;37.03
67157;SHT31;54086;50.126;8.710;2023-07-09T16:00:23;35.91;37.24
67157;SHT31;54086;50.126;8.710;2023-07-09T16:02:50;35.89;36.73
67157;SHT31;54086;50.126;8.710;2023-07-09T16:05:26;35.81;36.99
67157;SHT31;54086;50.126;8.710;2023-07-09T16:07:53;35.95;37.05
67157;SHT31;54086;50.126;8.710;2023-07-09T16:10:20;35.99;36.46
67157;SHT31;54086;50.126;8.710;2023-07-09T16:12:52;35.99;36.63
67157;SHT31;54086;50.126;8.710;2023-07-09T16:15:19;36.05;36.56